Gardner, Kansas
Current Conditions -  °F | °C
As of 11:53 AM on Friday 24 Oct 2014 (Local Time) from KIXD Reporting Station
Clear Clear  
Wind Chill: 67°   Ceiling: Unl
Heat Index: 67°   Visibility: 10mi
Dew Point: 60°   Wind: 12mph
Humidity: 79%   Direction: 200°SSW
Pressure: 30.05"   Gusts: NA
Location:  38.81°N, 94.93°W
Report Text: KIXD 241653Z 20010KT 10SM CLR 19/16 A3005 RMK AO2 SLP171 T01940156
Loading
Personal Weather Stations






























Interactive Weather Map
Tropical Storm Tracking
New forecast layout! Learn more

10-Day Weather Forecast

Advertisements
Track Severe Weather on mobile